Time;durP1;ratioP1;P1;durP2;ratioP2;P2;SDS_P1;SDS_P2;PMS_P1;PMS_P2;Temp;Humidity;BMP_temperature;BMP_pressure;BME280_temperature;BME280_humidity;BME280_pressure;Samples;Min_cycle;Max_cycle;Signal;HPM_P1;HPM_P2
2022/09/18 00:01:14;;;;;;;15.73;13.30;;;13.70;99.90;;;;;;5065762;28;20709;-70
2022/09/18 00:03:42;;;;;;;14.00;12.43;;;13.60;99.90;;;;;;5074904;28;20574;-70
2022/09/18 00:06:11;;;;;;;15.50;12.40;;;13.60;99.90;;;;;;5073878;28;20237;-71
2022/09/18 00:08:38;;;;;;;16.67;13.40;;;13.60;99.90;;;;;;5074290;28;20299;-72
2022/09/18 00:11:08;;;;;;;15.50;13.57;;;13.70;99.90;;;;;;5073450;28;20295;-72
2022/09/18 00:13:36;;;;;;;16.33;13.60;;;13.60;99.90;;;;;;5073395;28;20233;-70
2022/09/18 00:16:04;;;;;;;16.40;13.93;;;13.60;99.90;;;;;;5074149;28;20216;-70
2022/09/18 00:18:31;;;;;;;18.30;13.63;;;13.60;99.90;;;;;;5074393;28;20321;-71
2022/09/18 00:21:04;;;;;;;17.57;14.40;;;13.50;99.90;;;;;;5073144;28;20292;-71
2022/09/18 00:23:31;;;;;;;22.30;14.17;;;13.50;99.90;;;;;;5074207;28;20224;-71
2022/09/18 00:25:57;;;;;;;16.83;13.17;;;13.50;99.90;;;;;;5072544;28;20714;-70
2022/09/18 00:28:26;;;;;;;16.67;12.67;;;13.50;99.90;;;;;;5074033;28;20685;-70
2022/09/18 00:30:53;;;;;;;18.33;13.67;;;13.40;99.90;;;;;;5073036;28;20738;-71
2022/09/18 00:33:20;;;;;;;14.47;12.77;;;13.40;99.90;;;;;;5073613;28;20211;-70
2022/09/18 00:35:47;;;;;;;16.60;13.27;;;13.40;99.90;;;;;;5072648;28;20233;-70
2022/09/18 00:38:14;;;;;;;15.37;11.90;;;13.40;99.90;;;;;;5073390;28;20266;-72
2022/09/18 00:40:41;;;;;;;14.30;10.97;;;13.40;99.90;;;;;;5073609;28;20239;-71
2022/09/18 00:43:21;;;;;;;13.70;12.13;;;13.40;99.90;;;;;;5073650;28;20201;-70
2022/09/18 00:45:54;;;;;;;15.33;11.50;;;13.40;99.90;;;;;;5073037;28;20280;-71
2022/09/18 00:48:22;;;;;;;14.17;11.47;;;13.40;99.90;;;;;;5073928;28;20289;-69
2022/09/18 00:50:49;;;;;;;13.47;10.07;;;13.40;99.90;;;;;;5073477;28;20707;-75
2022/09/18 00:53:16;;;;;;;11.20;10.00;;;13.50;99.90;;;;;;5072870;28;20644;-72
2022/09/18 00:55:43;;;;;;;11.43;9.30;;;13.50;99.90;;;;;;5073592;28;20651;-70
2022/09/18 00:58:10;;;;;;;10.00;8.83;;;13.50;99.90;;;;;;5070328;28;20801;-70
2022/09/18 01:00:38;;;;;;;10.77;8.63;;;13.50;99.90;;;;;;5072543;28;20303;-73
2022/09/18 01:03:07;;;;;;;10.93;9.17;;;13.50;99.90;;;;;;5073306;28;20608;-69
2022/09/18 01:05:50;;;;;;;11.87;9.30;;;13.50;99.90;;;;;;5070657;28;20228;-69
2022/09/18 01:08:27;;;;;;;10.17;8.67;;;13.60;99.90;;;;;;5072790;28;20626;-70
2022/09/18 01:11:08;;;;;;;10.10;8.80;;;13.60;99.90;;;;;;5073080;28;20719;-69
2022/09/18 01:13:41;;;;;;;11.63;8.93;;;13.60;99.90;;;;;;5073663;28;20612;-69
2022/09/18 01:16:14;;;;;;;9.70;7.97;;;13.60;99.90;;;;;;5059582;28;20245;-71
2022/09/18 01:18:51;;;;;;;11.53;9.40;;;13.60;99.90;;;;;;5071245;28;20212;-71
2022/09/18 01:21:25;;;;;;;10.50;8.63;;;13.70;99.90;;;;;;5073827;28;20195;-71
2022/09/18 01:24:21;;;;;;;10.37;9.03;;;13.70;99.90;;;;;;5072811;28;20204;-72
2022/09/18 01:26:55;;;;;;;10.83;9.03;;;13.70;99.90;;;;;;5069461;28;20280;-70
2022/09/18 01:29:33;;;;;;;11.57;10.37;;;13.70;99.90;;;;;;5073000;28;20550;-71
2022/09/18 01:32:06;;;;;;;13.27;11.17;;;13.60;99.90;;;;;;5072953;28;20279;-71
2022/09/18 01:34:38;;;;;;;12.40;10.10;;;13.60;99.90;;;;;;5072692;28;20280;-71
2022/09/18 01:37:10;;;;;;;13.87;11.03;;;13.60;99.90;;;;;;5072212;28;20667;-71
2022/09/18 01:39:41;;;;;;;14.23;11.50;;;13.60;99.90;;;;;;5073366;28;20203;-70
2022/09/18 01:42:10;;;;;;;13.17;10.70;;;13.60;99.90;;;;;;5071699;28;20280;-69
2022/09/18 01:44:42;;;;;;;16.70;11.77;;;13.60;99.90;;;;;;5072373;28;20299;-70
2022/09/18 01:47:13;;;;;;;14.93;11.97;;;13.50;99.90;;;;;;5070970;28;20729;-70
2022/09/18 01:49:45;;;;;;;12.30;10.83;;;13.50;99.90;;;;;;5072635;28;20646;-70
2022/09/18 01:52:17;;;;;;;13.60;10.37;;;13.50;99.90;;;;;;5071962;28;20276;-69
2022/09/18 01:54:47;;;;;;;11.87;9.77;;;13.60;99.90;;;;;;5072120;28;20199;-69
2022/09/18 01:57:17;;;;;;;14.17;10.80;;;13.60;99.90;;;;;;5071037;28;20228;-70
2022/09/18 01:59:49;;;;;;;11.97;9.40;;;13.60;99.90;;;;;;5071798;28;20207;-70
2022/09/18 02:02:21;;;;;;;10.80;8.77;;;13.60;99.90;;;;;;5070032;28;20282;-69
2022/09/18 02:04:52;;;;;;;9.53;8.47;;;13.60;99.90;;;;;;5071472;28;20322;-69
2022/09/18 02:07:26;;;;;;;10.93;8.33;;;13.60;99.90;;;;;;5071952;28;20190;-69
2022/09/18 02:09:53;;;;;;;10.90;8.73;;;13.60;99.90;;;;;;5071752;28;20280;-71
2022/09/18 02:12:24;;;;;;;12.57;10.67;;;13.60;99.90;;;;;;5071991;28;20694;-68
2022/09/18 02:14:56;;;;;;;11.30;9.90;;;13.60;99.90;;;;;;5070702;28;20299;-69
2022/09/18 02:17:27;;;;;;;14.63;10.23;;;13.60;99.90;;;;;;5071890;28;20299;-67
2022/09/18 02:19:58;;;;;;;10.80;9.50;;;13.60;99.90;;;;;;5071987;28;20242;-69
2022/09/18 02:22:29;;;;;;;12.50;10.00;;;13.60;99.90;;;;;;5072186;28;20189;-69
2022/09/18 02:24:59;;;;;;;12.63;10.03;;;13.60;99.90;;;;;;5070462;28;20212;-70
2022/09/18 02:27:27;;;;;;;13.17;10.50;;;13.60;99.90;;;;;;5072046;28;20272;-69
2022/09/18 02:29:56;;;;;;;12.30;9.67;;;13.60;99.90;;;;;;5071604;28;20291;-69
2022/09/18 02:32:23;;;;;;;14.40;10.90;;;13.60;99.90;;;;;;5071880;28;20234;-69
2022/09/18 02:34:50;;;;;;;13.53;10.37;;;13.50;99.90;;;;;;5069811;28;20215;-70
2022/09/18 02:37:35;;;;;;;14.20;10.43;;;13.50;99.90;;;;;;5071993;28;20315;-69
2022/09/18 02:40:16;;;;;;;15.30;11.23;;;13.50;99.90;;;;;;5071862;28;20195;-69
2022/09/18 02:42:52;;;;;;;13.60;11.07;;;13.40;99.90;;;;;;5071623;28;20285;-71
2022/09/18 02:45:28;;;;;;;15.50;11.90;;;13.40;99.90;;;;;;5071078;28;20721;-70
2022/09/18 02:48:05;;;;;;;16.07;11.87;;;13.40;99.90;;;;;;5071707;28;20350;-70
2022/09/18 02:50:39;;;;;;;13.97;11.73;;;13.30;99.90;;;;;;5072532;28;20285;-70
2022/09/18 02:53:10;;;;;;;12.97;11.00;;;13.30;99.90;;;;;;5072049;28;20276;-70
2022/09/18 02:55:44;;;;;;;16.23;12.37;;;13.30;99.90;;;;;;5075943;28;20287;-70
2022/09/18 02:58:17;;;;;;;17.10;12.67;;;13.30;99.90;;;;;;5075705;28;20231;-70
2022/09/18 03:00:48;;;;;;;16.03;12.07;;;13.30;99.90;;;;;;5075773;28;20212;-70
2022/09/18 03:03:17;;;;;;;16.27;12.57;;;13.20;99.90;;;;;;5074843;28;20301;-69
2022/09/18 03:05:44;;;;;;;16.60;12.80;;;13.20;99.90;;;;;;5074944;28;20702;-69
2022/09/18 03:08:11;;;;;;;15.80;11.93;;;13.20;99.90;;;;;;5075066;28;20227;-70
2022/09/18 03:10:38;;;;;;;14.77;12.27;;;13.20;99.90;;;;;;5075143;28;20239;-70
2022/09/18 03:13:05;;;;;;;18.00;12.73;;;13.20;99.90;;;;;;5073895;28;20241;-69
2022/09/18 03:15:32;;;;;;;17.13;12.10;;;13.20;99.90;;;;;;5074957;28;20205;-71
2022/09/18 03:18:00;;;;;;;14.67;11.67;;;13.20;99.90;;;;;;5075232;28;20227;-70
2022/09/18 03:20:27;;;;;;;16.73;11.90;;;13.10;99.90;;;;;;5074289;28;20208;-70
2022/09/18 03:22:54;;;;;;;14.63;10.30;;;13.20;99.90;;;;;;5070083;28;20693;-70
2022/09/18 03:25:21;;;;;;;12.50;9.83;;;13.10;99.90;;;;;;5074969;28;20675;-70
2022/09/18 03:27:48;;;;;;;12.37;10.63;;;13.10;99.90;;;;;;5073751;28;20295;-70
2022/09/18 03:30:15;;;;;;;11.50;10.30;;;13.00;99.90;;;;;;5074098;28;20709;-69
2022/09/18 03:32:42;;;;;;;10.57;9.33;;;13.10;99.90;;;;;;5073092;28;20279;-70
2022/09/18 03:35:10;;;;;;;10.93;9.23;;;13.00;99.90;;;;;;5073810;28;20295;-69
2022/09/18 03:37:37;;;;;;;14.17;9.07;;;13.10;99.90;;;;;;5073565;28;20268;-69
2022/09/18 03:40:05;;;;;;;10.03;8.40;;;13.00;99.90;;;;;;5074264;28;20296;-70
2022/09/18 03:42:31;;;;;;;13.07;9.77;;;13.00;99.90;;;;;;5072493;28;20269;-69
2022/09/18 03:44:58;;;;;;;13.83;10.07;;;13.10;99.90;;;;;;5074992;28;20658;-70
2022/09/18 03:47:25;;;;;;;11.30;9.57;;;13.10;99.90;;;;;;5074595;28;20300;-70
2022/09/18 03:49:52;;;;;;;11.13;9.13;;;13.00;99.90;;;;;;5073447;28;20295;-71
2022/09/18 03:52:20;;;;;;;12.23;9.27;;;13.00;99.90;;;;;;5074764;28;20272;-71
2022/09/18 03:54:47;;;;;;;13.80;11.60;;;13.00;99.90;;;;;;5074537;28;20263;-70
2022/09/18 03:57:14;;;;;;;16.83;12.47;;;13.00;99.90;;;;;;5074418;28;20750;-71
2022/09/18 03:59:41;;;;;;;11.23;9.23;;;13.00;99.90;;;;;;5073598;28;20578;-71
2022/09/18 04:02:08;;;;;;;14.23;9.70;;;12.90;99.90;;;;;;5074516;28;20303;-70
2022/09/18 04:04:35;;;;;;;11.07;9.57;;;12.90;99.90;;;;;;5073978;28;20228;-70
2022/09/18 04:07:02;;;;;;;12.67;9.50;;;13.00;99.90;;;;;;5075209;28;20197;-71
2022/09/18 04:09:30;;;;;;;11.70;9.43;;;13.00;99.90;;;;;;5073807;28;20215;-73
2022/09/18 04:11:57;;;;;;;10.53;9.30;;;12.90;99.90;;;;;;5075592;28;20257;-71
2022/09/18 04:14:23;;;;;;;10.13;8.73;;;13.00;99.90;;;;;;5075423;28;20292;-72
2022/09/18 04:16:50;;;;;;;12.17;9.00;;;12.90;99.90;;;;;;5074417;28;20803;-70
2022/09/18 04:19:17;;;;;;;10.73;9.07;;;13.00;99.90;;;;;;5073167;28;20297;-70
2022/09/18 04:21:44;;;;;;;10.67;8.50;;;13.00;99.90;;;;;;5074028;28;20236;-70
2022/09/18 04:24:11;;;;;;;9.87;8.57;;;12.90;99.90;;;;;;5073859;28;20216;-70
2022/09/18 04:26:39;;;;;;;9.87;8.80;;;12.90;99.90;;;;;;5073915;28;20295;-70
2022/09/18 04:29:06;;;;;;;9.90;8.83;;;12.90;99.90;;;;;;5072027;28;20207;-70
2022/09/18 04:31:33;;;;;;;10.70;9.23;;;12.90;99.90;;;;;;5073401;28;20311;-70
2022/09/18 04:34:00;;;;;;;9.33;8.33;;;12.90;99.90;;;;;;5074619;28;20725;-70
2022/09/18 04:36:27;;;;;;;9.30;8.17;;;12.80;99.90;;;;;;5073681;28;20204;-69
2022/09/18 04:38:53;;;;;;;9.40;8.40;;;12.80;99.90;;;;;;5072686;28;20702;-70
2022/09/18 04:41:20;;;;;;;10.87;8.60;;;12.80;99.90;;;;;;5074150;28;20554;-71
2022/09/18 04:43:49;;;;;;;8.73;7.37;;;12.70;99.90;;;;;;5073567;28;20280;-71
2022/09/18 04:46:15;;;;;;;8.07;7.27;;;12.70;99.90;;;;;;5074269;28;20291;-70
2022/09/18 04:48:46;;;;;;;10.73;7.20;;;12.70;99.90;;;;;;5075611;28;20296;-71
2022/09/18 04:51:14;;;;;;;8.53;7.30;;;12.70;99.90;;;;;;5073777;28;20322;-70
2022/09/18 04:53:40;;;;;;;8.03;7.13;;;12.70;99.90;;;;;;5073339;28;20279;-70
2022/09/18 04:56:07;;;;;;;8.30;6.53;;;12.60;99.90;;;;;;5073629;28;20295;-71
2022/09/18 04:58:34;;;;;;;6.47;5.83;;;12.60;99.90;;;;;;5071288;28;20317;-71
2022/09/18 05:01:02;;;;;;;8.00;6.23;;;12.70;99.90;;;;;;5071428;28;20247;-71
2022/09/18 05:03:29;;;;;;;7.20;6.47;;;12.70;99.90;;;;;;5073388;28;20337;-70
2022/09/18 05:05:56;;;;;;;6.77;6.07;;;12.70;99.90;;;;;;5073127;28;20243;-70
2022/09/18 05:08:23;;;;;;;7.93;6.60;;;12.70;99.90;;;;;;5066587;28;20307;-71
2022/09/18 05:10:50;;;;;;;6.97;6.27;;;12.70;99.90;;;;;;5072467;28;20731;-69
2022/09/18 05:13:17;;;;;;;7.50;6.57;;;12.80;99.90;;;;;;5073238;28;20204;-68
2022/09/18 05:15:44;;;;;;;6.93;6.13;;;12.80;99.90;;;;;;5072379;28;20646;-70
2022/09/18 05:18:13;;;;;;;7.97;6.63;;;12.80;99.90;;;;;;5072000;28;20770;-69
2022/09/18 05:20:40;;;;;;;7.07;6.37;;;12.80;99.90;;;;;;5072871;28;20296;-69
2022/09/18 05:23:07;;;;;;;6.40;5.47;;;12.70;99.90;;;;;;5072926;28;20204;-69
2022/09/18 05:25:34;;;;;;;6.20;5.60;;;12.70;99.90;;;;;;5071247;28;20266;-69
2022/09/18 05:28:03;;;;;;;6.37;5.33;;;12.70;99.90;;;;;;5071294;28;20204;-70
2022/09/18 05:30:30;;;;;;;7.87;4.97;;;12.70;99.90;;;;;;5072097;28;20304;-69
2022/09/18 05:32:59;;;;;;;7.77;5.70;;;12.70;99.90;;;;;;5069790;28;20419;-71
2022/09/18 05:35:29;;;;;;;6.63;5.23;;;12.70;99.90;;;;;;5068879;28;20643;-71
2022/09/18 05:37:56;;;;;;;5.90;5.27;;;12.60;99.90;;;;;;5065060;28;20221;-69
2022/09/18 05:40:25;;;;;;;6.37;5.50;;;12.60;99.90;;;;;;5066534;28;20236;-70
2022/09/18 05:42:52;;;;;;;5.20;4.70;;;12.60;99.90;;;;;;5063264;28;20211;-70
2022/09/18 05:45:20;;;;;;;5.17;4.67;;;12.60;99.90;;;;;;5067619;28;20289;-69
2022/09/18 05:47:54;;;;;;;6.47;5.77;;;12.70;99.90;;;;;;5071437;28;20300;-71
2022/09/18 05:50:22;;;;;;;6.73;5.50;;;12.60;99.90;;;;;;5072751;28;20205;-69
2022/09/18 05:52:58;;;;;;;7.60;6.17;;;12.60;99.90;;;;;;5070415;28;20204;-69
2022/09/18 05:55:25;;;;;;;10.47;7.23;;;12.60;99.90;;;;;;5065557;28;20196;-69
2022/09/18 05:57:53;;;;;;;10.40;7.73;;;12.60;99.90;;;;;;5065509;28;20297;-70
2022/09/18 06:00:20;;;;;;;10.07;7.77;;;12.60;99.90;;;;;;5067394;28;20201;-72
2022/09/18 06:02:53;;;;;;;10.20;8.63;;;12.60;99.90;;;;;;5071005;28;20279;-70
2022/09/18 06:05:20;;;;;;;14.83;10.60;;;12.60;99.90;;;;;;5071031;28;20237;-69
2022/09/18 06:07:47;;;;;;;15.33;11.57;;;12.60;99.90;;;;;;5071677;28;20624;-70
2022/09/18 14:51:31;;;;;;;6.60;2.00;;;15.60;99.90;;;;;;5060914;28;20586;-69
2022/09/18 14:53:59;;;;;;;4.40;2.40;;;15.90;99.90;;;;;;5048282;28;20629;-68
2022/09/18 14:56:29;;;;;;;5.63;2.10;;;15.90;99.90;;;;;;5048463;28;20230;-68
2022/09/18 14:58:59;;;;;;;2.77;2.00;;;15.90;99.90;;;;;;5050104;28;20304;-69
2022/09/18 15:01:29;;;;;;;5.83;2.17;;;15.80;99.90;;;;;;5043239;28;20208;-69
2022/09/18 15:03:58;;;;;;;4.07;2.10;;;15.80;99.90;;;;;;5046621;28;20703;-69
2022/09/18 15:06:33;;;;;;;2.90;1.70;;;15.80;99.90;;;;;;5048464;28;20237;-69
2022/09/18 15:09:01;;;;;;;2.27;1.80;;;15.70;99.90;;;;;;5048505;28;20285;-69
2022/09/18 15:11:30;;;;;;;1.97;1.60;;;15.60;99.90;;;;;;5048428;28;20234;-70
2022/09/18 15:13:57;;;;;;;7.30;1.70;;;15.60;99.90;;;;;;5047846;28;20209;-69
2022/09/18 15:16:27;;;;;;;1.80;1.70;;;15.40;99.90;;;;;;5061431;28;20299;-71
2022/09/18 15:18:54;;;;;;;2.40;2.07;;;15.40;99.90;;;;;;5054125;28;20214;-70
2022/09/18 15:21:25;;;;;;;2.50;1.90;;;15.30;99.90;;;;;;5047991;28;20304;-69
2022/09/18 15:23:54;;;;;;;4.00;1.63;;;15.30;99.90;;;;;;5047581;28;20212;-70
2022/09/18 15:26:27;;;;;;;3.30;1.50;;;15.20;99.90;;;;;;5048153;28;20255;-70
2022/09/18 15:28:55;;;;;;;3.13;1.40;;;15.10;99.90;;;;;;5044556;28;20197;-71
2022/09/18 15:31:23;;;;;;;2.33;1.60;;;15.10;99.90;;;;;;5054245;28;20197;-71
2022/09/18 15:33:55;;;;;;;2.03;1.77;;;15.00;99.90;;;;;;5060960;28;20297;-68
2022/09/18 15:36:25;;;;;;;4.73;2.50;;;14.90;99.90;;;;;;5047808;28;20290;-69
2022/09/18 15:38:55;;;;;;;4.97;1.87;;;14.70;99.90;;;;;;5048018;28;20620;-71
2022/09/18 15:41:34;;;;;;;2.97;2.00;;;14.70;99.90;;;;;;5051014;28;20201;-70
2022/09/18 15:44:02;;;;;;;5.60;2.13;;;14.70;99.90;;;;;;5047910;28;20271;-70
2022/09/18 15:46:30;;;;;;;5.87;2.00;;;14.60;99.90;;;;;;5048285;28;20314;-70
2022/09/18 15:49:01;;;;;;;4.80;1.77;;;14.60;99.90;;;;;;5056598;28;20572;-70
2022/09/18 15:51:29;;;;;;;3.63;1.60;;;14.60;99.90;;;;;;5039852;28;20226;-70
2022/09/18 15:54:18;;;;;;;2.57;1.60;;;14.60;99.90;;;;;;5033688;28;20297;-69
2022/09/18 15:56:50;;;;;;;1.90;1.47;;;14.50;99.90;;;;;;5023851;28;20281;-70
2022/09/18 15:59:23;;;;;;;1.80;1.43;;;14.50;99.90;;;;;;5036315;28;20228;-69
2022/09/18 16:01:50;;;;;;;2.23;1.60;;;14.40;99.90;;;;;;5037516;28;20906;-70
2022/09/18 16:04:20;;;;;;;8.43;1.60;;;14.40;99.90;;;;;;5023276;28;20281;-70
2022/09/18 16:06:56;;;;;;;4.57;1.70;;;14.30;99.90;;;;;;5035733;28;20206;-70
2022/09/18 16:09:39;;;;;;;2.80;1.60;;;14.20;99.90;;;;;;5034499;28;20294;-72
2022/09/18 16:12:37;;;;;;;1.80;1.47;;;14.10;99.90;;;;;;5035482;28;20616;-71
2022/09/18 16:15:16;;;;;;;2.03;1.57;;;14.10;99.90;;;;;;5031549;28;20638;-71
2022/09/18 16:18:02;;;;;;;3.47;1.90;;;14.00;99.90;;;;;;5034530;28;20214;-70
2022/09/18 16:20:36;;;;;;;5.57;2.17;;;14.00;99.90;;;;;;5033494;28;20641;-70
2022/09/18 16:23:23;;;;;;;3.70;2.20;;;13.90;99.90;;;;;;5034039;28;20708;-71
2022/09/18 16:26:07;;;;;;;3.03;2.20;;;13.90;99.90;;;;;;5034161;28;20190;-70
2022/09/18 16:28:36;;;;;;;3.13;1.90;;;13.90;99.90;;;;;;5034348;28;20213;-72
2022/09/18 16:31:03;;;;;;;2.93;2.00;;;13.80;99.90;;;;;;5033719;28;20226;-70
2022/09/18 16:33:31;;;;;;;3.27;2.43;;;13.80;99.90;;;;;;5034352;28;20293;-70
2022/09/18 16:36:02;;;;;;;4.50;2.43;;;13.80;99.90;;;;;;5033890;28;20242;-69
2022/09/18 16:38:30;;;;;;;3.83;2.20;;;13.80;99.90;;;;;;5033896;28;20230;-72
2022/09/18 16:40:57;;;;;;;3.70;2.00;;;13.80;99.90;;;;;;5033685;28;20313;-73
2022/09/18 16:43:25;;;;;;;3.27;2.67;;;13.70;99.90;;;;;;5036398;28;20647;-72
2022/09/18 16:45:53;;;;;;;2.50;2.23;;;13.60;99.90;;;;;;5033744;28;20208;-73
2022/09/18 16:48:21;;;;;;;6.60;2.20;;;13.50;99.90;;;;;;5033703;28;20213;-69
2022/09/18 16:50:48;;;;;;;2.37;2.10;;;13.50;99.90;;;;;;5033382;28;20234;-72
2022/09/18 16:53:15;;;;;;;4.37;2.10;;;13.50;99.90;;;;;;5033795;28;20301;-72
2022/09/18 17:08:05;;;;;;;1.77;1.30;;;13.30;99.90;;;;;;5108847;27;20561;-69
2022/09/18 17:10:32;;;;;;;1.40;1.30;;;12.40;99.90;;;;;;5109762;28;20751;-70
2022/09/18 17:13:00;;;;;;;2.30;1.20;;;12.10;99.90;;;;;;5109896;28;20543;-69
2022/09/18 17:30:53;;;;;;;1.60;1.23;;;11.50;99.90;;;;;;5063262;27;1407733;-70
2022/09/18 17:33:19;;;;;;;4.10;1.73;;;11.10;99.90;;;;;;5087988;28;20247;-69
2022/09/18 17:35:47;;;;;;;1.40;1.30;;;11.00;99.90;;;;;;5088993;28;20287;-67
2022/09/18 17:38:14;;;;;;;1.87;1.50;;;11.00;99.90;;;;;;5087692;28;20642;-68
2022/09/18 17:40:41;;;;;;;1.47;1.30;;;11.00;99.90;;;;;;5082548;28;20205;-68
2022/09/18 17:43:09;;;;;;;1.40;1.30;;;10.90;99.90;;;;;;5085637;28;20286;-65
2022/09/18 17:45:35;;;;;;;3.73;1.40;;;10.80;99.90;;;;;;5087289;28;20658;-68
2022/09/18 17:48:04;;;;;;;2.57;1.47;;;10.70;99.90;;;;;;5070062;28;20221;-67
2022/09/18 17:50:31;;;;;;;1.73;1.40;;;10.60;99.90;;;;;;5068460;28;20221;-67
2022/09/18 17:52:58;;;;;;;1.30;1.20;;;10.50;99.90;;;;;;5068611;28;20205;-69
2022/09/18 17:55:25;;;;;;;2.60;1.67;;;10.40;99.90;;;;;;5068401;28;20234;-67
2022/09/18 17:57:52;;;;;;;2.90;1.93;;;10.40;99.90;;;;;;5068303;28;20200;-67
2022/09/18 18:00:19;;;;;;;1.87;1.50;;;10.30;99.90;;;;;;5068771;28;20705;-68
2022/09/18 18:02:46;;;;;;;2.67;1.40;;;10.30;99.90;;;;;;5068178;28;20205;-68
2022/09/18 18:05:14;;;;;;;1.63;1.37;;;10.20;99.90;;;;;;5068485;28;20297;-70
2022/09/18 18:07:41;;;;;;;1.33;1.23;;;10.20;99.90;;;;;;5068947;28;20205;-68
2022/09/18 18:10:09;;;;;;;1.83;1.30;;;10.10;99.90;;;;;;5068416;28;20295;-70
2022/09/18 18:12:36;;;;;;;1.50;1.40;;;10.10;99.90;;;;;;5068452;28;20300;-69
2022/09/18 18:15:03;;;;;;;1.40;1.30;;;10.00;99.90;;;;;;5067739;28;20209;-67
2022/09/18 18:17:34;;;;;;;3.50;1.43;;;10.00;99.90;;;;;;5087472;28;20304;-68
2022/09/18 18:20:02;;;;;;;1.73;1.33;;;10.00;99.90;;;;;;5088185;28;20681;-68
2022/09/18 18:22:30;;;;;;;1.40;1.30;;;9.90;99.90;;;;;;5088321;28;20214;-70
2022/09/18 18:24:58;;;;;;;1.10;1.10;;;9.90;99.90;;;;;;5088438;28;20291;-67
2022/09/18 18:27:24;;;;;;;1.67;1.33;;;9.90;99.90;;;;;;5081834;28;20280;-67
2022/09/18 18:29:52;;;;;;;1.37;1.27;;;9.90;99.90;;;;;;5064839;28;20308;-67
2022/09/18 18:32:19;;;;;;;1.40;1.30;;;9.90;99.90;;;;;;5054397;28;20209;-68
2022/09/18 18:34:47;;;;;;;2.33;1.70;;;9.90;99.90;;;;;;5054190;28;20301;-68
2022/09/18 18:37:14;;;;;;;1.53;1.30;;;9.80;99.90;;;;;;5053775;28;20263;-67
2022/09/18 18:39:42;;;;;;;1.37;1.30;;;9.80;99.90;;;;;;5054323;28;20232;-71
2022/09/18 18:42:09;;;;;;;2.90;1.63;;;9.80;99.90;;;;;;5054742;28;20678;-70
2022/09/18 18:44:37;;;;;;;1.50;1.40;;;9.80;99.90;;;;;;5056281;28;20730;-68
2022/09/18 18:47:04;;;;;;;1.40;1.30;;;9.80;99.90;;;;;;5053847;28;20729;-67
2022/09/18 18:49:31;;;;;;;1.87;1.50;;;9.80;99.90;;;;;;5039882;28;20201;-70
2022/09/18 18:52:02;;;;;;;2.17;1.97;;;9.80;99.90;;;;;;5053929;28;20201;-67
2022/09/18 18:54:30;;;;;;;1.70;1.40;;;9.80;99.90;;;;;;5054263;28;20194;-68
2022/09/18 18:56:58;;;;;;;2.60;1.60;;;9.80;99.90;;;;;;5047030;28;20212;-67
2022/09/18 18:59:25;;;;;;;3.10;1.77;;;9.80;99.90;;;;;;5050475;28;20324;-68
2022/09/18 19:01:55;;;;;;;2.23;1.70;;;9.80;99.90;;;;;;5053331;28;20300;-68
2022/09/18 19:04:22;;;;;;;1.60;1.50;;;9.80;99.90;;;;;;5054061;28;20683;-68
2022/09/18 19:06:49;;;;;;;5.43;1.90;;;9.80;99.90;;;;;;5054441;28;20206;-68
2022/09/18 19:09:20;;;;;;;2.40;1.60;;;9.80;99.90;;;;;;5053694;28;20235;-68
2022/09/18 19:11:48;;;;;;;1.60;1.50;;;9.80;99.90;;;;;;5053659;28;20292;-67
2022/09/18 19:14:18;;;;;;;1.57;1.47;;;9.80;99.90;;;;;;5051652;28;20209;-69
2022/09/18 19:16:46;;;;;;;2.63;2.40;;;9.80;99.90;;;;;;5053747;28;20284;-68
2022/09/18 19:19:14;;;;;;;1.70;1.60;;;9.80;99.90;;;;;;5052250;28;20317;-68
2022/09/18 19:21:42;;;;;;;3.17;1.80;;;9.80;99.90;;;;;;5056486;28;20205;-68
2022/09/18 19:24:10;;;;;;;2.20;1.83;;;9.80;99.90;;;;;;5062074;28;20272;-66
2022/09/18 19:26:39;;;;;;;2.33;1.70;;;9.80;99.90;;;;;;5060222;28;20611;-68
2022/09/18 19:29:09;;;;;;;2.30;1.70;;;9.80;99.90;;;;;;5053498;28;20321;-68
2022/09/18 19:31:39;;;;;;;1.93;1.60;;;9.80;99.90;;;;;;5053795;28;20210;-68
2022/09/18 19:34:06;;;;;;;1.60;1.50;;;9.80;99.90;;;;;;5053728;28;20190;-67
2022/09/18 19:36:33;;;;;;;1.70;1.60;;;9.80;99.90;;;;;;5053788;28;20300;-68
2022/09/18 19:39:02;;;;;;;2.47;1.50;;;9.80;99.90;;;;;;5053128;28;20666;-68
2022/09/18 19:41:36;;;;;;;2.27;1.60;;;9.80;99.90;;;;;;5053921;28;20643;-66
2022/09/18 19:44:06;;;;;;;1.63;1.53;;;9.80;99.90;;;;;;5052135;28;20268;-68
2022/09/18 19:46:33;;;;;;;4.90;1.63;;;9.70;99.90;;;;;;5053319;28;20624;-68
2022/09/18 19:49:01;;;;;;;1.60;1.50;;;9.70;99.90;;;;;;5052868;28;20201;-69
2022/09/18 19:51:29;;;;;;;6.80;2.20;;;9.70;99.90;;;;;;5052951;28;20279;-67
2022/09/18 19:53:56;;;;;;;2.10;1.50;;;9.70;99.90;;;;;;5053101;28;20296;-67
2022/09/18 19:56:22;;;;;;;1.70;1.50;;;9.70;99.90;;;;;;5052937;28;20629;-69
2022/09/18 19:58:50;;;;;;;1.47;1.37;;;9.70;99.90;;;;;;5053129;28;20208;-67
2022/09/18 20:01:18;;;;;;;1.70;1.60;;;9.70;99.90;;;;;;5052543;28;20291;-68
2022/09/18 20:03:45;;;;;;;3.70;1.80;;;9.70;99.90;;;;;;5053339;28;20205;-70
2022/09/18 20:06:14;;;;;;;1.50;1.40;;;9.70;99.90;;;;;;5052406;28;20217;-69
2022/09/18 20:08:41;;;;;;;2.93;1.43;;;9.70;99.90;;;;;;5052568;28;20296;-69
2022/09/18 20:11:08;;;;;;;1.77;1.50;;;9.70;99.90;;;;;;5052437;28;20292;-68
2022/09/18 20:13:34;;;;;;;2.20;1.43;;;9.70;99.90;;;;;;5052846;28;20241;-68
2022/09/18 20:16:02;;;;;;;2.10;1.60;;;9.70;99.90;;;;;;5068232;28;20248;-67
2022/09/18 20:18:29;;;;;;;1.50;1.40;;;9.70;99.90;;;;;;5072210;28;20295;-67
2022/09/18 20:20:56;;;;;;;1.87;1.50;;;9.70;99.90;;;;;;5064731;28;20228;-68
2022/09/18 20:23:24;;;;;;;1.60;1.50;;;9.70;99.90;;;;;;5052614;28;20304;-67
2022/09/18 20:25:51;;;;;;;1.57;1.47;;;9.60;99.90;;;;;;5052326;28;20211;-68
2022/09/18 20:28:19;;;;;;;2.57;1.40;;;9.70;99.90;;;;;;5052339;28;20205;-68
2022/09/18 20:30:46;;;;;;;2.17;1.60;;;9.70;99.90;;;;;;5051918;28;20706;-66
2022/09/18 20:33:13;;;;;;;2.53;1.43;;;9.70;99.90;;;;;;5052796;28;20602;-67
2022/09/18 20:35:40;;;;;;;2.57;1.50;;;9.60;99.90;;;;;;5052002;28;20211;-67
2022/09/18 20:38:07;;;;;;;1.53;1.43;;;9.60;99.90;;;;;;5051949;28;20299;-67
2022/09/18 20:40:37;;;;;;;2.07;1.50;;;9.70;99.90;;;;;;5051730;28;20224;-66
2022/09/18 20:43:04;;;;;;;1.50;1.40;;;9.70;99.90;;;;;;5051828;28;20221;-68
2022/09/18 20:45:32;;;;;;;1.80;1.50;;;9.70;99.90;;;;;;5052139;28;20701;-68
2022/09/18 20:48:02;;;;;;;2.60;1.60;;;9.70;99.90;;;;;;5051879;28;20209;-67
2022/09/18 20:50:29;;;;;;;1.77;1.40;;;9.70;99.90;;;;;;5052391;28;20201;-67
2022/09/18 20:53:07;;;;;;;1.40;1.30;;;9.70;99.90;;;;;;5051538;28;20300;-69
2022/09/18 20:55:35;;;;;;;2.40;1.50;;;9.70;99.90;;;;;;5054819;28;20288;-69
2022/09/18 20:58:04;;;;;;;1.80;1.70;;;9.70;99.90;;;;;;5051441;28;20255;-67
2022/09/18 21:00:33;;;;;;;2.93;1.90;;;9.70;99.90;;;;;;5051798;28;20300;-67
2022/09/18 21:02:59;;;;;;;3.00;2.23;;;9.80;99.90;;;;;;5051623;28;20213;-67
2022/09/18 21:05:26;;;;;;;2.20;1.50;;;9.80;99.90;;;;;;5052282;28;20314;-66
2022/09/18 21:07:59;;;;;;;1.57;1.47;;;9.80;99.90;;;;;;5051666;28;20732;-66
2022/09/18 21:10:27;;;;;;;1.60;1.40;;;9.80;99.90;;;;;;5051824;28;20185;-67
2022/09/18 21:12:56;;;;;;;1.70;1.50;;;9.80;99.90;;;;;;5051654;28;20566;-67
2022/09/18 21:15:23;;;;;;;1.60;1.50;;;9.80;99.90;;;;;;5051942;28;20664;-67
2022/09/18 21:17:51;;;;;;;1.60;1.30;;;9.80;99.90;;;;;;5051280;28;20884;-67
2022/09/18 21:20:19;;;;;;;1.40;1.30;;;9.80;99.90;;;;;;5051614;28;20247;-66
2022/09/18 21:25:31;;;;;;;2.13;1.50;;;9.80;99.90;;;;;;5071465;28;20187;-66
2022/09/18 21:28:01;;;;;;;1.70;1.40;;;9.80;99.90;;;;;;5071631;28;20287;-66
2022/09/18 21:30:28;;;;;;;1.93;1.50;;;9.80;99.90;;;;;;5071126;28;20267;-65
2022/09/18 21:32:57;;;;;;;2.17;1.40;;;9.90;99.90;;;;;;5069921;28;20251;-68
2022/09/18 21:35:24;;;;;;;1.73;1.30;;;9.80;99.90;;;;;;5051572;28;20209;-65
2022/09/18 21:37:53;;;;;;;1.40;1.30;;;9.80;99.90;;;;;;5051331;28;20726;-66
2022/09/18 21:40:20;;;;;;;1.43;1.33;;;9.80;99.90;;;;;;5051445;28;20232;-66
2022/09/18 21:42:47;;;;;;;2.50;1.40;;;9.90;99.90;;;;;;5051181;28;20650;-66
2022/09/18 21:45:18;;;;;;;3.00;1.50;;;9.80;99.90;;;;;;5051244;28;20634;-66
2022/09/18 21:47:46;;;;;;;1.70;1.60;;;9.90;99.90;;;;;;5051191;28;20189;-67
2022/09/18 21:50:14;;;;;;;1.83;1.50;;;9.80;99.90;;;;;;5050899;28;20763;-67
2022/09/18 21:52:41;;;;;;;1.60;1.50;;;9.80;99.90;;;;;;5051269;28;20208;-67
2022/09/18 21:55:09;;;;;;;1.87;1.77;;;9.80;99.90;;;;;;5051179;28;20208;-66
2022/09/18 21:57:37;;;;;;;3.27;1.70;;;9.90;99.90;;;;;;5051842;28;20206;-67
2022/09/18 22:00:06;;;;;;;2.00;1.80;;;9.90;99.90;;;;;;5050726;28;20271;-67
2022/09/18 22:02:35;;;;;;;2.90;1.60;;;9.90;99.90;;;;;;5050175;28;20251;-66
2022/09/18 22:05:05;;;;;;;2.00;1.70;;;9.90;99.90;;;;;;5050431;28;20201;-67